Time;durP1;ratioP1;P1;durP2;ratioP2;P2;SDS_P1;SDS_P2;PMS_P1;PMS_P2;Temp;Humidity;BMP_temperature;BMP_pressure;BME280_temperature;BME280_humidity;BME280_pressure;Samples;Min_cycle;Max_cycle;Signal;HPM_P1;HPM_P2
2021/09/15 00:00:42;;;;;;;11.17;10.07;;;;;;;20.32;100.00;97977.72;5154748;27;20220;-69
2021/09/15 00:03:08;;;;;;;10.43;9.50;;;;;;;20.29;100.00;97974.53;5154814;27;20228;-69
2021/09/15 00:05:35;;;;;;;10.50;9.50;;;;;;;20.26;100.00;97970.34;5153720;27;20240;-69
2021/09/15 00:08:02;;;;;;;10.87;9.77;;;;;;;20.28;100.00;97976.38;5152601;27;20214;-69
2021/09/15 00:10:28;;;;;;;10.97;9.87;;;;;;;20.31;100.00;97969.81;5152838;27;20304;-69
2021/09/15 00:12:56;;;;;;;10.93;9.83;;;;;;;20.32;100.00;97974.19;5154100;27;20213;-69
2021/09/15 00:15:22;;;;;;;10.23;9.23;;;;;;;20.34;100.00;97970.31;5154403;27;20243;-69
2021/09/15 00:17:49;;;;;;;11.10;10.00;;;;;;;20.36;100.00;97976.34;5151631;27;20212;-70
2021/09/15 00:20:15;;;;;;;10.97;9.87;;;;;;;20.39;100.00;97967.13;5154193;27;20235;-69
2021/09/15 00:22:42;;;;;;;10.27;9.27;;;;;;;20.39;100.00;97976.03;5153815;27;20701;-68
2021/09/15 00:25:09;;;;;;;10.20;9.27;;;;;;;20.31;100.00;97976.00;5148089;27;20221;-68
2021/09/15 00:27:35;;;;;;;10.00;9.07;;;;;;;20.22;100.00;97978.88;5139710;27;20223;-67
2021/09/15 00:30:03;;;;;;;10.80;9.77;;;;;;;20.09;100.00;97974.03;5153878;27;20216;-66
2021/09/15 00:32:30;;;;;;;11.63;10.43;;;;;;;19.95;100.00;97972.00;5153842;27;20213;-66
2021/09/15 00:34:56;;;;;;;11.40;10.30;;;;;;;19.88;100.00;97949.53;5154182;27;20918;-66
2021/09/15 00:37:23;;;;;;;12.60;11.30;;;;;;;19.81;100.00;97951.22;5149690;27;20217;-66
2021/09/15 00:39:49;;;;;;;12.00;10.90;;;;;;;19.76;100.00;97945.50;5153871;27;20228;-66
2021/09/15 00:42:16;;;;;;;13.10;11.80;;;;;;;19.69;100.00;97939.13;5153933;27;20209;-66
2021/09/15 00:44:42;;;;;;;11.77;10.57;;;;;;;19.64;100.00;97940.66;5153809;27;20205;-66
2021/09/15 00:47:10;;;;;;;13.70;12.30;;;;;;;19.61;100.00;97940.97;5151020;27;20220;-66
2021/09/15 00:49:37;;;;;;;12.77;11.47;;;;;;;19.58;100.00;97936.78;5153889;27;20216;-67
2021/09/15 00:52:04;;;;;;;13.07;11.67;;;;;;;19.55;100.00;97942.50;5153446;27;20216;-66
2021/09/15 00:54:30;;;;;;;13.93;11.93;;;;;;;19.56;100.00;97949.53;5153411;27;20227;-66
2021/09/15 00:56:57;;;;;;;14.13;11.60;;;;;;;19.57;100.00;97943.16;5150322;27;20208;-65
2021/09/15 00:59:23;;;;;;;13.37;11.97;;;;;;;19.56;100.00;97946.84;5141655;27;20236;-65
2021/09/15 01:01:50;;;;;;;14.87;13.27;;;;;;;19.58;100.00;97952.88;5145357;27;20221;-66
2021/09/15 01:04:18;;;;;;;14.80;13.20;;;;;;;19.60;100.00;97953.56;5150745;27;20601;-66
2021/09/15 01:06:46;;;;;;;15.43;13.50;;;;;;;19.62;100.00;97953.41;5142271;27;20585;-66
2021/09/15 01:09:12;;;;;;;16.40;14.60;;;;;;;19.66;100.00;97952.03;5151517;27;20216;-66
2021/09/15 01:11:40;;;;;;;16.27;14.57;;;;;;;19.60;100.00;97945.50;5146240;27;20581;-66
2021/09/15 01:14:07;;;;;;;15.97;14.27;;;;;;;19.59;100.00;97932.25;5153171;27;20263;-66
2021/09/15 01:16:52;;;;;;;16.13;14.53;;;;;;;19.54;100.00;97926.56;5151256;27;20212;-66
2021/09/15 01:19:21;;;;;;;16.60;14.93;;;;;;;19.48;100.00;97920.03;5141258;27;20631;-66
2021/09/15 01:21:49;;;;;;;16.23;14.57;;;;;;;19.47;100.00;97928.22;5153095;27;20220;-66
2021/09/15 01:24:16;;;;;;;15.50;13.90;;;;;;;19.47;100.00;97915.69;5152319;27;20204;-66
2021/09/15 01:26:44;;;;;;;13.50;12.10;;;;;;;19.43;100.00;97916.16;5150801;27;20679;-66
2021/09/15 01:29:14;;;;;;;14.20;12.70;;;;;;;19.39;100.00;97917.50;5151360;27;20227;-66
2021/09/15 01:31:54;;;;;;;14.63;13.10;;;;;;;19.36;100.00;97920.50;5152569;27;20216;-67
2021/09/15 01:34:21;;;;;;;14.07;12.57;;;;;;;19.35;100.00;97924.19;5149861;27;20739;-67
2021/09/15 01:36:49;;;;;;;15.73;12.13;;;;;;;19.32;100.00;97919.19;5152771;27;20211;-67
2021/09/15 01:39:16;;;;;;;13.87;12.10;;;;;;;19.34;100.00;97926.06;5152718;27;20259;-67
2021/09/15 01:41:42;;;;;;;14.43;12.90;;;;;;;19.30;100.00;97913.97;5138225;27;20211;-66
2021/09/15 01:44:09;;;;;;;15.40;13.80;;;;;;;19.27;100.00;97906.25;5148989;27;20209;-67
2021/09/15 01:46:37;;;;;;;13.90;12.40;;;;;;;19.25;100.00;97897.56;5138709;27;20207;-67
2021/09/15 01:49:03;;;;;;;13.57;12.23;;;;;;;19.25;100.00;97908.28;5152229;27;20213;-67
2021/09/15 01:51:30;;;;;;;13.73;12.07;;;;;;;19.26;100.00;97899.22;5152288;27;20220;-67
2021/09/15 01:53:58;;;;;;;12.60;11.33;;;;;;;19.30;100.00;97897.91;5149799;27;20205;-67
2021/09/15 01:56:24;;;;;;;13.53;12.10;;;;;;;19.31;100.00;97896.91;5151126;27;20208;-67
2021/09/15 01:58:51;;;;;;;13.50;12.20;;;;;;;19.33;100.00;97894.88;5152131;27;20586;-67
2021/09/15 02:01:17;;;;;;;15.03;12.47;;;;;;;19.36;100.00;97889.19;5152381;27;20205;-67
2021/09/15 02:03:43;;;;;;;13.00;11.03;;;;;;;19.37;100.00;97893.56;5138939;27;20217;-67
2021/09/15 02:06:10;;;;;;;12.57;11.27;;;;;;;19.35;100.00;97887.53;5151567;27;20209;-67
2021/09/15 02:08:36;;;;;;;11.73;10.50;;;;;;;19.34;100.00;97891.22;5151411;27;20213;-67
2021/09/15 02:11:04;;;;;;;11.53;10.30;;;;;;;19.33;100.00;97886.84;5152203;27;20220;-67
2021/09/15 02:13:31;;;;;;;12.40;11.10;;;;;;;19.31;100.00;97875.44;5150635;27;20209;-67
2021/09/15 02:15:57;;;;;;;12.57;10.23;;;;;;;19.28;100.00;97886.53;5150696;27;20220;-67
2021/09/15 02:18:24;;;;;;;12.57;11.27;;;;;;;19.25;100.00;97886.84;5151864;27;20261;-67
2021/09/15 02:20:50;;;;;;;11.50;10.40;;;;;;;19.24;100.00;97882.47;5150388;27;20251;-67
2021/09/15 02:23:17;;;;;;;10.97;9.80;;;;;;;19.21;100.00;97888.16;5151429;27;20244;-67
2021/09/15 02:25:43;;;;;;;11.47;10.10;;;;;;;19.21;100.00;97877.44;5150486;27;20213;-67
2021/09/15 02:28:11;;;;;;;12.10;10.77;;;;;;;19.26;100.00;97877.78;5152179;27;21642;-67
2021/09/15 02:30:37;;;;;;;13.00;10.73;;;;;;;19.30;100.00;97884.50;5152071;27;20286;-68
2021/09/15 02:33:04;;;;;;;11.80;10.70;;;;;;;19.35;100.00;97875.97;5151254;27;20227;-68
2021/09/15 02:35:31;;;;;;;10.60;9.50;;;;;;;19.38;100.00;97886.38;5149898;27;20563;-67
2021/09/15 02:37:58;;;;;;;10.43;9.43;;;;;;;19.43;100.00;97873.28;5151636;27;20742;-67
2021/09/15 02:40:25;;;;;;;10.03;9.03;;;;;;;19.45;100.00;97865.91;5151500;27;20236;-68
2021/09/15 02:42:51;;;;;;;10.27;9.37;;;;;;;19.46;100.00;97873.81;5151477;27;20739;-68
2021/09/15 02:45:19;;;;;;;11.13;9.93;;;;;;;19.49;100.00;97873.44;5149132;27;20675;-68
2021/09/15 02:47:46;;;;;;;11.20;10.10;;;;;;;19.53;100.00;97888.22;5149905;27;20702;-69
2021/09/15 02:50:12;;;;;;;11.23;10.03;;;;;;;19.58;100.00;97883.16;5151438;27;20212;-68
2021/09/15 02:52:39;;;;;;;10.73;9.73;;;;;;;19.61;100.00;97869.44;5151806;27;20217;-69
2021/09/15 02:55:06;;;;;;;12.03;10.77;;;;;;;19.61;100.00;97866.75;5139490;27;20213;-69
2021/09/15 02:57:32;;;;;;;11.30;10.20;;;;;;;19.61;100.00;97868.59;5151754;27;20223;-69
2021/09/15 02:59:59;;;;;;;11.70;10.37;;;;;;;19.54;100.00;97871.13;5151708;27;20244;-69
2021/09/15 03:02:27;;;;;;;11.83;10.63;;;;;;;19.52;100.00;97872.28;5151854;27;20212;-69
2021/09/15 03:04:53;;;;;;;12.67;11.33;;;;;;;19.50;100.00;97869.75;5148851;27;20237;-69
2021/09/15 03:07:20;;;;;;;12.80;11.07;;;;;;;19.53;100.00;97873.94;5151707;27;20217;-70
2021/09/15 03:09:46;;;;;;;13.80;10.93;;;;;;;19.51;100.00;97871.44;5151434;27;20226;-68
2021/09/15 03:12:13;;;;;;;11.93;10.63;;;;;;;19.47;100.00;97875.47;5151704;27;20213;-68
2021/09/15 03:14:39;;;;;;;11.67;10.47;;;;;;;19.49;100.00;97872.59;5147345;27;20209;-68
2021/09/15 03:17:06;;;;;;;11.17;10.07;;;;;;;19.45;100.00;97874.78;5151408;27;20220;-69
2021/09/15 03:19:34;;;;;;;11.47;10.27;;;;;;;19.44;100.00;97870.44;5151371;27;20230;-69
2021/09/15 03:22:00;;;;;;;11.40;10.33;;;;;;;19.47;100.00;97869.25;5155327;27;20212;-69
2021/09/15 03:24:27;;;;;;;12.10;10.90;;;;;;;19.50;100.00;97869.75;5152723;27;20204;-69
2021/09/15 03:26:53;;;;;;;13.13;10.30;;;;;;;19.55;100.00;97872.78;5141414;27;20205;-69
2021/09/15 03:29:20;;;;;;;10.80;9.70;;;;;;;19.53;100.00;97874.81;5155375;27;20216;-70
2021/09/15 03:31:46;;;;;;;12.43;11.00;;;;;;;19.56;100.00;97874.44;5155208;27;20221;-69
2021/09/15 03:34:13;;;;;;;12.67;10.83;;;;;;;19.56;100.00;97879.00;5153320;27;20209;-69
2021/09/15 03:36:41;;;;;;;11.63;10.43;;;;;;;19.56;100.00;97873.63;5154275;27;20227;-68
2021/09/15 03:39:07;;;;;;;11.10;10.00;;;;;;;19.57;100.00;97870.75;5153981;27;20212;-66
2021/09/15 03:41:34;;;;;;;10.50;9.40;;;;;;;19.55;100.00;97867.41;5154756;27;20212;-67
2021/09/15 03:44:00;;;;;;;11.17;10.07;;;;;;;19.53;100.00;97869.44;5153393;27;20209;-67
2021/09/15 03:46:27;;;;;;;11.07;9.93;;;;;;;19.47;100.00;97863.91;5154097;27;20212;-66
2021/09/15 03:48:53;;;;;;;11.60;10.40;;;;;;;19.41;100.00;97868.09;5154716;27;20212;-67
2021/09/15 03:51:20;;;;;;;10.83;9.43;;;;;;;19.36;100.00;97865.06;5154578;27;20206;-67
2021/09/15 03:53:48;;;;;;;10.47;9.47;;;;;;;19.31;100.00;97863.88;5153623;27;20205;-67
2021/09/15 03:56:14;;;;;;;10.67;9.57;;;;;;;19.24;100.00;97863.72;5153502;27;20221;-67
2021/09/15 03:58:41;;;;;;;11.27;10.07;;;;;;;19.17;100.00;97862.69;5154859;27;20215;-67
2021/09/15 04:01:09;;;;;;;10.80;9.57;;;;;;;19.10;100.00;97855.47;5154661;27;20624;-68
2021/09/15 04:03:36;;;;;;;10.40;9.40;;;;;;;19.09;100.00;97865.34;5153513;27;20265;-65
2021/09/15 04:06:02;;;;;;;12.53;9.60;;;;;;;19.07;100.00;97861.19;5151165;27;20217;-63
2021/09/15 04:08:29;;;;;;;11.30;9.33;;;;;;;19.00;100.00;97855.63;5154355;27;20213;-64
2021/09/15 04:10:57;;;;;;;10.83;9.73;;;;;;;18.95;100.00;97859.81;5146383;27;20210;-64
2021/09/15 04:13:23;;;;;;;11.27;10.17;;;;;;;18.90;100.00;97857.59;5150853;27;20212;-64
2021/09/15 04:15:50;;;;;;;11.23;10.13;;;;;;;18.90;100.00;97854.94;5152513;27;20209;-65
2021/09/15 04:18:16;;;;;;;12.23;11.03;;;;;;;18.89;100.00;97857.78;5154267;27;20209;-65
2021/09/15 04:20:43;;;;;;;11.20;10.07;;;;;;;18.86;100.00;97864.31;5154091;27;20737;-65
2021/09/15 04:23:14;;;;;;;11.63;10.43;;;;;;;18.88;100.00;97869.47;5140217;27;20212;-65
2021/09/15 04:31:23;;;;;;;10.70;9.70;;;;;;;18.91;100.00;97872.66;5152372;27;20342;-65
2021/09/15 04:33:50;;;;;;;12.07;10.47;;;;;;;18.95;100.00;97873.19;5139005;27;20330;-65
2021/09/15 04:36:17;;;;;;;10.83;9.73;;;;;;;18.95;100.00;97863.31;5154053;27;20212;-65
2021/09/15 04:38:44;;;;;;;11.03;9.33;;;;;;;18.95;100.00;97874.03;5153980;27;20213;-65
2021/09/15 04:41:10;;;;;;;10.63;9.53;;;;;;;18.97;100.00;97874.69;5151233;27;20252;-65
2021/09/15 04:43:39;;;;;;;10.93;9.87;;;;;;;18.99;100.00;97878.06;5153868;27;20610;-66
2021/09/15 04:46:06;;;;;;;10.77;9.67;;;;;;;18.98;100.00;97884.44;5153718;27;20246;-66
2021/09/15 04:48:32;;;;;;;10.20;9.10;;;;;;;18.98;100.00;97884.44;5153496;27;20676;-66
2021/09/15 04:50:59;;;;;;;11.00;9.80;;;;;;;18.94;100.00;97877.72;5150975;27;20681;-66
2021/09/15 04:53:25;;;;;;;10.73;9.60;;;;;;;18.93;100.00;97885.91;5137912;27;20206;-66
2021/09/15 04:55:52;;;;;;;10.47;9.37;;;;;;;18.89;100.00;97887.25;5138338;27;20218;-67
2021/09/15 04:58:18;;;;;;;10.70;9.43;;;;;;;18.89;100.00;97888.06;5146170;27;20213;-67
2021/09/15 05:00:46;;;;;;;10.00;9.00;;;;;;;18.92;100.00;97884.22;5151539;27;20232;-67
2021/09/15 05:03:13;;;;;;;9.50;8.50;;;;;;;18.95;100.00;97889.28;5153263;27;20210;-67
2021/09/15 05:05:39;;;;;;;9.97;8.97;;;;;;;18.97;100.00;97898.78;5153014;27;20241;-68
2021/09/15 05:08:06;;;;;;;9.77;8.77;;;;;;;19.00;100.00;97898.47;5153242;27;20215;-67
2021/09/15 05:10:32;;;;;;;9.70;8.83;;;;;;;19.03;100.00;97908.03;5151523;27;20675;-68
2021/09/15 05:12:59;;;;;;;11.00;9.50;;;;;;;19.01;100.00;97913.53;5152378;27;20255;-67
2021/09/15 05:15:27;;;;;;;10.13;9.13;;;;;;;19.02;100.00;97917.91;5153195;27;20588;-65
2021/09/15 05:17:55;;;;;;;10.53;9.53;;;;;;;19.01;100.00;97916.22;5144217;27;20671;-65
2021/09/15 05:20:22;;;;;;;11.70;10.13;;;;;;;18.97;100.00;97927.44;5149546;27;20241;-66
2021/09/15 05:22:50;;;;;;;12.23;10.93;;;;;;;18.95;100.00;97924.91;5152259;27;20583;-66
2021/09/15 05:25:17;;;;;;;13.77;11.17;;;;;;;18.95;100.00;97916.06;5152710;27;20204;-66
2021/09/15 05:27:44;;;;;;;14.17;11.77;;;;;;;18.89;100.00;97917.53;5143934;27;20209;-65
2021/09/15 05:30:14;;;;;;;13.83;12.03;;;;;;;18.84;100.00;97914.50;5149300;27;20220;-68
2021/09/15 05:32:41;;;;;;;13.87;11.93;;;;;;;18.85;100.00;97915.34;5151856;27;20216;-66
2021/09/15 05:35:10;;;;;;;12.03;10.63;;;;;;;18.82;100.00;97919.19;5152889;27;20220;-66
2021/09/15 05:37:37;;;;;;;12.73;9.70;;;;;;;18.79;100.00;97922.19;5152543;27;20216;-66
2021/09/15 05:40:04;;;;;;;11.73;9.90;;;;;;;18.75;100.00;97918.16;5150789;27;20228;-67
2021/09/15 05:42:30;;;;;;;11.27;10.13;;;;;;;18.75;100.00;97923.50;5151780;27;20216;-67
2021/09/15 05:45:01;;;;;;;11.37;9.17;;;;;;;18.74;100.00;97927.19;5152504;27;20235;-67
2021/09/15 05:47:28;;;;;;;13.23;8.80;;;;;;;18.76;100.00;97927.00;5152283;27;20216;-68
2021/09/15 05:49:54;;;;;;;9.27;8.27;;;;;;;18.75;100.00;97920.84;5150385;27;20213;-68
2021/09/15 05:52:22;;;;;;;11.57;8.13;;;;;;;18.76;100.00;97922.50;5150202;27;20213;-67
2021/09/15 05:54:48;;;;;;;8.50;7.63;;;;;;;18.76;100.00;97930.53;5151787;27;20694;-67
2021/09/15 05:57:15;;;;;;;8.47;7.60;;;;;;;18.80;100.00;97917.66;5152083;27;20216;-67
2021/09/15 05:59:41;;;;;;;9.47;8.20;;;;;;;18.82;100.00;97927.22;5150958;27;20216;-65
2021/09/15 06:02:08;;;;;;;8.53;7.50;;;;;;;18.84;100.00;97925.19;5151290;27;20236;-65
2021/09/15 06:04:34;;;;;;;8.73;7.43;;;;;;;18.81;100.00;97925.53;5152329;27;20240;-65
2021/09/15 06:07:01;;;;;;;8.53;7.67;;;;;;;18.82;100.00;97929.91;5152373;27;20214;-68
2021/09/15 06:09:29;;;;;;;8.30;7.50;;;;;;;18.80;100.00;97934.59;5151317;27;20221;-65
2021/09/15 06:11:55;;;;;;;8.90;7.57;;;;;;;18.79;100.00;97930.22;5150992;27;20228;-64
2021/09/15 06:14:22;;;;;;;8.93;8.03;;;;;;;18.75;100.00;97930.69;5152197;27;20212;-65
2021/09/15 06:16:48;;;;;;;8.63;7.73;;;;;;;18.70;100.00;97939.22;5150324;27;20211;-62
2021/09/15 06:19:14;;;;;;;9.57;8.57;;;;;;;18.72;100.00;97947.91;5151901;27;20214;-61
2021/09/15 06:21:41;;;;;;;9.03;7.83;;;;;;;18.73;100.00;97938.91;5150253;27;20237;-61
2021/09/15 06:24:07;;;;;;;7.77;6.97;;;;;;;18.77;100.00;97942.91;5152053;27;20209;-61
2021/09/15 06:26:36;;;;;;;7.30;6.67;;;;;;;18.78;100.00;97947.28;5152018;27;20216;-61
2021/09/15 06:29:03;;;;;;;9.47;7.53;;;;;;;18.80;100.00;97945.28;5151695;27;20221;-61
2021/09/15 06:31:29;;;;;;;8.70;7.80;;;;;;;18.83;100.00;97944.13;5149616;27;20224;-61
2021/09/15 06:33:56;;;;;;;8.67;7.60;;;;;;;18.85;100.00;97934.09;5151882;27;20212;-61
2021/09/15 06:36:23;;;;;;;8.97;8.07;;;;;;;18.87;100.00;97930.25;5142294;27;20581;-61
2021/09/15 06:38:49;;;;;;;9.83;8.80;;;;;;;18.87;100.00;97937.44;5148011;27;20297;-61
2021/09/15 06:41:16;;;;;;;9.60;8.60;;;;;;;18.90;100.00;97929.09;5150798;27;20245;-61
2021/09/15 06:43:45;;;;;;;10.70;9.00;;;;;;;18.91;100.00;97926.22;5150351;27;20588;-61
2021/09/15 06:46:11;;;;;;;10.67;8.83;;;;;;;18.94;100.00;97933.94;5151955;27;20299;-61
2021/09/15 06:48:38;;;;;;;9.87;8.33;;;;;;;18.98;100.00;97932.63;5151637;27;20694;-61
2021/09/15 06:51:04;;;;;;;12.80;8.60;;;;;;;19.03;100.00;97924.09;5137283;27;20213;-61
2021/09/15 06:53:31;;;;;;;10.70;8.57;;;;;;;19.03;100.00;97924.94;5148825;27;20222;-61
2021/09/15 06:55:57;;;;;;;10.13;9.03;;;;;;;19.02;100.00;97923.25;5138775;27;20213;-61
2021/09/15 06:58:24;;;;;;;10.40;9.20;;;;;;;19.03;100.00;97924.94;5151054;27;20208;-60
2021/09/15 07:00:52;;;;;;;10.03;8.70;;;;;;;19.00;100.00;97925.25;5152875;27;20243;-60
2021/09/15 07:03:18;;;;;;;10.53;9.20;;;;;;;18.99;100.00;97923.59;5155903;27;20212;-62
2021/09/15 07:05:45;;;;;;;10.00;8.63;;;;;;;18.98;100.00;97916.56;5156045;27;20232;-62
2021/09/15 07:08:12;;;;;;;10.63;9.53;;;;;;;18.97;100.00;97909.50;5155987;27;20214;-61
2021/09/15 07:10:40;;;;;;;10.17;8.80;;;;;;;18.98;100.00;97905.00;5151409;27;20235;-61
2021/09/15 07:13:07;;;;;;;10.13;9.03;;;;;;;19.02;100.00;97901.81;5155654;27;20247;-60
2021/09/15 07:15:33;;;;;;;10.57;8.67;;;;;;;19.02;100.00;97903.69;5154028;27;20213;-60
2021/09/15 07:18:01;;;;;;;10.50;8.83;;;;;;;19.02;100.00;97901.00;5152955;27;20220;-61
2021/09/15 07:20:28;;;;;;;10.60;8.10;;;;;;;19.06;100.00;97903.19;5151390;27;20216;-61
2021/09/15 07:22:54;;;;;;;9.10;8.07;;;;;;;18.98;100.00;97905.84;5155489;27;20205;-62
2021/09/15 07:25:21;;;;;;;10.30;9.10;;;;;;;19.00;100.00;97898.47;5149390;27;20205;-61
2021/09/15 07:27:47;;;;;;;9.77;8.70;;;;;;;19.03;100.00;97900.81;5141337;27;20218;-61
2021/09/15 07:30:14;;;;;;;10.60;9.50;;;;;;;19.07;100.00;97896.00;5146200;27;20209;-61
2021/09/15 07:32:40;;;;;;;9.60;8.67;;;;;;;19.10;100.00;97903.69;5147301;27;20239;-60
2021/09/15 07:35:12;;;;;;;11.40;9.07;;;;;;;19.12;100.00;97915.06;5140943;27;20204;-61
2021/09/15 07:37:39;;;;;;;10.43;8.87;;;;;;;19.16;100.00;97930.69;5142461;27;20213;-61
2021/09/15 07:40:07;;;;;;;9.60;8.60;;;;;;;19.19;100.00;97927.66;5145993;27;20205;-61
2021/09/15 07:42:33;;;;;;;8.80;7.90;;;;;;;19.21;100.00;97928.34;5147728;27;20243;-61
2021/09/15 07:45:00;;;;;;;9.57;8.57;;;;;;;19.20;100.00;97932.03;5144461;27;20217;-61
2021/09/15 07:47:26;;;;;;;9.37;8.20;;;;;;;19.21;100.00;97923.00;5143925;27;20210;-61
2021/09/15 07:49:53;;;;;;;9.87;8.60;;;;;;;19.15;100.00;97928.97;5145790;27;20228;-61
2021/09/15 07:52:21;;;;;;;9.47;7.83;;;;;;;19.12;100.00;97923.97;5147554;27;20213;-61
2021/09/15 07:54:47;;;;;;;10.60;6.80;;;;;;;19.08;100.00;97937.84;5147614;27;20205;-61
2021/09/15 07:57:14;;;;;;;7.17;5.83;;;;;;;19.02;100.00;97931.28;5145384;27;20213;-61
2021/09/15 07:59:43;;;;;;;9.63;6.90;;;;;;;19.00;100.00;97929.78;5144712;27;20215;-61
2021/09/15 08:02:10;;;;;;;7.63;6.67;;;;;;;19.02;100.00;97925.94;5145701;27;20237;-61
2021/09/15 08:04:36;;;;;;;8.10;7.30;;;;;;;19.08;100.00;97919.91;5144605;27;20237;-61
2021/09/15 08:07:03;;;;;;;8.83;7.83;;;;;;;19.15;100.00;97920.94;5147935;27;20217;-61
2021/09/15 08:09:31;;;;;;;8.37;7.03;;;;;;;19.18;100.00;97922.44;5149262;27;20572;-61
2021/09/15 08:11:57;;;;;;;9.00;7.03;;;;;;;19.19;100.00;97914.25;5150573;27;20584;-61
2021/09/15 08:14:26;;;;;;;11.00;7.00;;;;;;;19.25;100.00;97929.72;5153891;27;20577;-61
2021/09/15 08:16:52;;;;;;;7.53;6.20;;;;;;;19.31;100.00;97944.28;5148957;27;20227;-61
2021/09/15 08:19:19;;;;;;;9.53;7.83;;;;;;;19.30;100.00;97959.53;5153915;27;20668;-61
2021/09/15 08:21:46;;;;;;;8.23;7.33;;;;;;;19.32;100.00;97952.16;5149353;27;20236;-61
2021/09/15 08:24:13;;;;;;;8.57;7.00;;;;;;;19.34;100.00;97960.91;5149140;27;20226;-61
2021/09/15 08:26:41;;;;;;;7.80;7.03;;;;;;;19.38;100.00;97959.53;5155885;27;20224;-61
2021/09/15 08:29:08;;;;;;;9.57;7.37;;;;;;;19.44;100.00;97958.06;5147444;27;20743;-61
2021/09/15 08:31:34;;;;;;;7.73;6.97;;;;;;;19.49;100.00;97959.25;5151092;27;20209;-61
2021/09/15 08:34:01;;;;;;;8.20;6.37;;;;;;;19.49;100.00;97959.25;5151139;27;20219;-61
2021/09/15 08:36:27;;;;;;;8.53;6.30;;;;;;;19.48;100.00;97962.94;5153154;27;20224;-62
2021/09/15 08:38:53;;;;;;;7.30;6.13;;;;;;;19.49;100.00;97967.28;5153228;27;20220;-62
2021/09/15 08:41:20;;;;;;;8.53;6.37;;;;;;;19.52;100.00;97969.59;5145106;27;20715;-62
2021/09/15 08:43:48;;;;;;;7.60;6.30;;;;;;;19.57;100.00;97978.00;5147279;27;20714;-62
2021/09/15 08:46:18;;;;;;;9.00;6.00;;;;;;;19.64;100.00;97984.38;5142557;27;20228;-62
2021/09/15 08:48:45;;;;;;;11.20;6.60;;;;;;;19.71;100.00;97996.13;5142754;27;20292;-62
2021/09/15 08:51:13;;;;;;;7.77;6.13;;;;;;;19.74;100.00;97990.44;5146540;27;20368;-62
2021/09/15 08:53:41;;;;;;;9.33;6.00;;;;;;;19.70;100.00;97982.91;5143493;27;20207;-62
2021/09/15 08:56:08;;;;;;;8.47;6.07;;;;;;;19.62;100.00;97986.41;5151310;27;20213;-62
2021/09/15 08:58:35;;;;;;;6.67;5.97;;;;;;;19.54;100.00;97988.22;5152857;27;20212;-62
2021/09/15 09:01:14;;;;;;;8.20;6.80;;;;;;;19.47;100.00;97973.81;5152825;27;20216;-62
2021/09/15 09:03:41;;;;;;;11.43;7.90;;;;;;;19.47;100.00;97966.63;5151964;27;20231;-62
2021/09/15 09:06:08;;;;;;;11.57;8.40;;;;;;;19.48;100.00;97979.00;5152534;27;20683;-63
2021/09/15 09:08:39;;;;;;;9.67;8.03;;;;;;;19.57;100.00;97986.03;5144832;27;20209;-62
2021/09/15 09:11:06;;;;;;;9.50;7.50;;;;;;;19.58;100.00;97978.84;5148737;27;20208;-63
2021/09/15 09:13:33;;;;;;;9.03;7.10;;;;;;;19.56;100.00;97979.00;5142581;27;20213;-62
2021/09/15 09:16:00;;;;;;;6.73;6.03;;;;;;;19.58;100.00;97974.31;5144254;27;20213;-63
2021/09/15 09:18:28;;;;;;;7.17;6.10;;;;;;;19.61;100.00;97976.69;5147673;27;20577;-63
2021/09/15 09:20:54;;;;;;;8.20;5.40;;;;;;;19.55;100.00;97974.66;5142710;27;20219;-62
2021/09/15 09:23:21;;;;;;;5.77;5.10;;;;;;;19.57;100.00;97986.03;5146166;27;20216;-63
2021/09/15 09:25:52;;;;;;;6.83;5.63;;;;;;;19.57;100.00;97986.03;5145237;27;20216;-63
2021/09/15 09:28:27;;;;;;;6.17;5.07;;;;;;;19.53;100.00;97982.03;5141666;27;20687;-63
2021/09/15 09:30:55;;;;;;;5.90;4.97;;;;;;;19.44;100.00;97985.69;5141417;27;20227;-63
2021/09/15 09:33:22;;;;;;;6.43;4.87;;;;;;;19.39;100.00;97979.97;5146461;27;20236;-63
2021/09/15 09:35:51;;;;;;;6.33;5.07;;;;;;;19.35;100.00;97973.28;5146963;27;20219;-63
2021/09/15 09:38:20;;;;;;;5.63;5.00;;;;;;;19.26;100.00;97974.25;5141490;27;20217;-63
2021/09/15 09:41:08;;;;;;;6.70;5.40;;;;;;;19.14;100.00;97980.88;5147355;27;20223;-64
2021/09/15 09:43:37;;;;;;;6.00;4.77;;;;;;;19.11;100.00;97975.88;5145858;27;20289;-63
2021/09/15 09:46:05;;;;;;;5.90;5.30;;;;;;;19.09;100.00;97980.53;5141269;27;20710;-63
2021/09/15 09:48:37;;;;;;;5.97;5.27;;;;;;;19.09;100.00;97987.75;5138773;27;20219;-63
2021/09/15 09:51:22;;;;;;;6.13;5.20;;;;;;;19.08;100.00;97984.22;5140414;27;20579;-63
2021/09/15 09:53:49;;;;;;;9.47;5.10;;;;;;;19.16;100.00;97986.09;5141627;27;20205;-63
2021/09/15 09:56:16;;;;;;;5.67;5.17;;;;;;;19.18;100.00;97990.28;5150090;27;20581;-63
2021/09/15 09:58:44;;;;;;;5.57;4.73;;;;;;;19.29;100.00;97982.00;5141279;27;20705;-63
2021/09/15 10:01:15;;;;;;;5.73;5.13;;;;;;;19.36;100.00;97985.69;5143678;27;20209;-64
2021/09/15 10:03:42;;;;;;;7.20;5.30;;;;;;;19.47;100.00;97982.69;5147561;27;20213;-64
2021/09/15 10:06:10;;;;;;;5.67;4.70;;;;;;;19.56;100.00;97986.22;5141579;27;20204;-64
2021/09/15 10:08:38;;;;;;;5.60;5.00;;;;;;;19.62;100.00;97986.41;5146629;27;20674;-65
2021/09/15 10:11:04;;;;;;;5.43;4.93;;;;;;;19.68;100.00;97988.41;5145863;27;20211;-65
2021/09/15 10:13:31;;;;;;;4.87;4.33;;;;;;;19.82;100.00;97993.09;5141529;27;20205;-65
2021/09/15 10:16:03;;;;;;;5.53;4.97;;;;;;;19.92;100.00;97987.56;5146408;27;20295;-65
2021/09/15 10:18:30;;;;;;;4.83;4.43;;;;;;;19.95;100.00;97992.63;5142004;27;20208;-65
2021/09/15 10:20:58;;;;;;;7.03;4.70;;;;;;;20.05;100.00;98004.88;5151060;27;20212;-65
2021/09/15 10:23:37;;;;;;;5.27;4.57;;;;;;;20.13;100.00;97996.88;5151165;27;20251;-65
2021/09/15 10:26:26;;;;;;;4.97;4.47;;;;;;;20.25;100.00;97990.13;5145976;27;20216;-65
2021/09/15 10:29:26;;;;;;;5.07;4.50;;;;;;;20.34;100.00;97986.44;5140768;27;20210;-65
2021/09/15 10:31:57;;;;;;;5.13;4.43;;;;;;;20.48;100.00;97990.28;5142976;27;20567;-65
2021/09/15 10:34:48;;;;;;;8.63;5.03;;;;;;;20.64;100.00;97983.00;5140794;27;20239;-66
2021/09/15 10:37:51;;;;;;;5.00;4.47;;;;;;;20.82;100.00;97983.63;5144200;27;20215;-66
2021/09/15 10:40:37;;;;;;;5.93;4.33;;;;;;;20.88;100.00;97980.28;5143299;27;20219;-66
2021/09/15 10:43:05;;;;;;;5.33;4.83;;;;;;;21.08;100.00;97981.53;5148780;27;20706;-66
2021/09/15 10:45:33;;;;;;;6.27;4.60;;;;;;;21.37;100.00;97978.19;5148731;27;20212;-66
2021/09/15 10:48:12;;;;;;;6.20;4.77;;;;;;;21.68;100.00;97973.66;5150751;27;20235;-67
2021/09/15 10:50:53;;;;;;;4.83;4.33;;;;;;;21.96;100.00;97981.03;5150623;27;20670;-67
2021/09/15 10:53:22;;;;;;;6.37;4.10;;;;;;;22.18;100.00;97974.75;5147605;27;20258;-67
2021/09/15 10:55:53;;;;;;;5.00;4.33;;;;;;;22.31;100.00;97974.97;5140785;27;20220;-67
2021/09/15 10:58:22;;;;;;;6.23;4.47;;;;;;;22.24;100.00;97973.22;5140580;27;20213;-67
2021/09/15 11:00:51;;;;;;;6.83;4.30;;;;;;;22.18;100.00;97972.06;5143285;27;20212;-67
2021/09/15 11:03:30;;;;;;;8.30;4.40;;;;;;;22.11;100.00;97972.97;5143696;27;20710;-67
2021/09/15 11:05:57;;;;;;;5.40;4.20;;;;;;;22.07;100.00;97967.09;5143875;27;20277;-67
2021/09/15 11:08:38;;;;;;;6.47;4.10;;;;;;;22.04;100.00;97956.72;5143013;27;20608;-66
2021/09/15 11:11:08;;;;;;;4.27;3.87;;;;;;;22.10;100.00;97966.75;5147415;27;20827;-68
2021/09/15 11:13:57;;;;;;;4.93;4.40;;;;;;;22.20;100.00;97971.88;5141004;27;20227;-67
2021/09/15 11:16:29;;;;;;;5.10;4.60;;;;;;;22.32;100.00;97973.94;5150323;27;20231;-67
2021/09/15 11:18:57;;;;;;;4.53;4.13;;;;;;;22.32;100.00;97965.88;5143648;27;20215;-67
2021/09/15 11:21:25;;;;;;;5.33;4.53;;;;;;;22.19;100.00;97962.97;5149643;27;20694;-68
2021/09/15 11:23:55;;;;;;;6.43;5.00;;;;;;;22.06;100.00;97967.31;5146307;27;20285;-69
2021/09/15 11:26:40;;;;;;;7.90;4.73;;;;;;;22.09;100.00;97965.09;5150024;27;20229;-69